createdAt,value
2018-04-15T00:00:55.604Z,-15.92
2018-04-15T00:01:56.176Z,-15.92
2018-04-15T00:02:56.749Z,-15.92
2018-04-15T00:03:57.320Z,-15.92
2018-04-15T00:04:57.891Z,-15.92
2018-04-15T00:05:58.462Z,-15.92
2018-04-15T00:06:59.043Z,-15.92
2018-04-15T00:07:59.617Z,-15.92
2018-04-15T00:09:00.186Z,-15.92
2018-04-15T00:10:00.761Z,-15.92
2018-04-15T00:11:01.334Z,-15.92
2018-04-15T00:12:01.914Z,-15.92
2018-04-15T00:13:02.487Z,-15.92
2018-04-15T00:14:03.060Z,-15.92
2018-04-15T00:15:03.634Z,-15.92
2018-04-15T00:16:04.205Z,-15.92
2018-04-15T00:17:04.775Z,-15.92
2018-04-15T00:18:05.345Z,-15.92
2018-04-15T00:19:05.919Z,-15.92
2018-04-15T00:20:06.489Z,-15.92
2018-04-15T00:21:07.060Z,-15.92
2018-04-15T00:22:07.631Z,-15.92
2018-04-15T00:23:08.202Z,-15.92
2018-04-15T00:24:08.773Z,-15.92
2018-04-15T00:25:09.344Z,-15.92
2018-04-15T00:26:09.918Z,-15.92
2018-04-15T00:27:10.499Z,-15.92
2018-04-15T00:28:11.070Z,-15.92
2018-04-15T00:29:11.641Z,-15.92
2018-04-15T00:30:12.214Z,-15.92
2018-04-15T00:31:12.785Z,-15.92
2018-04-15T00:32:13.355Z,-15.92
2018-04-15T00:33:13.931Z,-15.92
2018-04-15T00:34:14.510Z,-15.92
2018-04-15T00:35:15.081Z,-15.92
2018-04-15T00:36:15.652Z,-15.92
2018-04-15T00:37:16.224Z,-15.92
2018-04-15T00:38:16.796Z,-15.92
2018-04-15T00:39:17.367Z,-15.92
2018-04-15T00:40:17.941Z,-15.92
2018-04-15T00:41:18.509Z,-15.92
2018-04-15T00:42:19.080Z,-15.92
2018-04-15T00:43:19.661Z,-15.92
2018-04-15T00:44:20.234Z,-15.92
2018-04-15T00:45:20.818Z,-15.92
2018-04-15T00:46:21.389Z,-15.92
2018-04-15T00:47:21.964Z,-15.92
2018-04-15T00:48:22.598Z,-15.92
2018-04-15T00:49:23.114Z,-15.92
2018-04-15T00:50:23.686Z,-15.92
2018-04-15T00:51:24.255Z,-15.92
2018-04-15T00:52:24.826Z,-15.92
2018-04-15T00:53:25.398Z,-15.92
2018-04-15T00:54:25.971Z,-15.92
2018-04-15T00:55:26.545Z,-15.92
2018-04-15T00:56:27.118Z,-15.92
2018-04-15T00:57:27.688Z,-15.92
2018-04-15T00:58:28.261Z,-15.92
2018-04-15T00:59:28.838Z,-15.92
2018-04-15T01:00:29.405Z,-15.92
2018-04-15T01:01:29.976Z,-15.92
2018-04-15T01:02:30.547Z,-15.92
2018-04-15T01:03:31.117Z,-15.92
2018-04-15T01:04:31.687Z,-15.92
2018-04-15T01:05:32.257Z,-15.92
2018-04-15T01:06:32.829Z,-15.92
2018-04-15T01:07:33.400Z,-15.92
2018-04-15T01:08:33.971Z,-15.92
2018-04-15T01:09:34.542Z,-15.92
2018-04-15T01:10:35.125Z,-15.92
2018-04-15T01:11:35.697Z,-15.92
2018-04-15T01:12:36.268Z,-15.92
2018-04-15T01:13:36.837Z,-15.92
2018-04-15T01:14:37.407Z,-15.92
2018-04-15T01:15:37.979Z,-15.92
2018-04-15T01:16:38.549Z,-15.92
2018-04-15T01:17:39.119Z,-15.92
2018-04-15T01:18:39.689Z,-15.92
2018-04-15T01:19:40.260Z,-15.92
2018-04-15T01:20:40.830Z,-15.92
2018-04-15T01:21:41.400Z,-15.92
2018-04-15T01:22:41.970Z,-15.92
2018-04-15T01:23:42.541Z,-15.92
2018-04-15T01:24:43.111Z,-15.92
2018-04-15T01:25:43.681Z,-15.92
2018-04-15T01:26:44.250Z,-15.92
2018-04-15T01:27:44.925Z,-15.92
2018-04-15T01:28:45.492Z,-15.92
2018-04-15T01:29:46.072Z,-15.92
2018-04-15T01:30:46.642Z,-15.92
2018-04-15T01:31:47.215Z,-15.92
2018-04-15T01:32:47.796Z,-15.92
2018-04-15T01:34:01.116Z,-15.92
2018-04-15T01:35:01.687Z,-15.92
2018-04-15T01:36:02.261Z,-15.92
2018-04-15T01:37:02.831Z,-15.92
2018-04-15T01:38:03.402Z,-15.92
2018-04-15T01:39:03.973Z,-15.92
2018-04-15T01:40:04.544Z,-15.92
2018-04-15T01:41:05.115Z,-15.92
2018-04-15T01:42:05.701Z,-15.92
2018-04-15T01:43:06.269Z,-15.92
2018-04-15T01:44:06.852Z,-15.92
2018-04-15T01:45:07.425Z,-15.92
2018-04-15T01:46:07.998Z,-15.92
2018-04-15T01:47:08.569Z,-15.92
2018-04-15T01:48:09.141Z,-15.92
2018-04-15T01:49:09.712Z,-15.92
2018-04-15T01:50:10.283Z,-15.92
2018-04-15T01:51:10.856Z,-15.92
2018-04-15T01:52:11.474Z,-15.92
2018-04-15T01:53:12.009Z,-15.92
2018-04-15T01:54:12.581Z,-15.92
2018-04-15T01:55:13.152Z,-15.92
2018-04-15T01:56:13.724Z,-15.92
2018-04-15T01:57:14.307Z,-15.92
2018-04-15T01:58:14.883Z,-15.92
2018-04-15T01:59:15.463Z,-15.92
2018-04-15T02:00:16.035Z,-15.92
2018-04-15T02:01:16.613Z,-15.92
2018-04-15T02:02:17.180Z,-15.92
2018-04-15T02:03:17.751Z,-15.92
2018-04-15T02:04:18.323Z,-15.92
2018-04-15T02:05:18.894Z,-15.92
2018-04-15T02:06:19.469Z,-15.92
2018-04-15T02:07:20.048Z,-15.92
2018-04-15T02:08:20.621Z,-15.92
2018-04-15T02:09:21.193Z,-15.92
2018-04-15T02:10:21.776Z,-15.92
2018-04-15T02:11:22.350Z,-15.92
2018-04-15T02:12:22.921Z,-15.92
2018-04-15T02:13:23.495Z,-15.92
2018-04-15T02:14:24.079Z,-15.92
2018-04-15T02:15:24.651Z,-15.92
2018-04-15T02:16:25.225Z,-15.92
2018-04-15T02:17:25.796Z,-15.92
2018-04-15T02:18:26.368Z,-15.92
2018-04-15T02:19:26.939Z,-15.92
2018-04-15T02:20:27.510Z,-15.92
2018-04-15T02:21:28.083Z,-15.92
2018-04-15T02:22:28.667Z,-15.92
2018-04-15T02:23:29.240Z,-15.92
2018-04-15T02:24:29.812Z,-15.92
2018-04-15T02:25:30.383Z,-15.92
2018-04-15T02:26:30.955Z,-15.92
2018-04-15T02:27:31.527Z,-15.92
2018-04-15T02:28:32.101Z,-15.92
2018-04-15T02:29:32.668Z,-15.92
2018-04-15T02:30:33.239Z,-15.92
2018-04-15T02:31:33.811Z,-15.92
2018-04-15T02:32:34.384Z,-15.92
2018-04-15T02:33:34.957Z,-15.92
2018-04-15T02:34:35.530Z,-15.92
2018-04-15T02:35:36.101Z,-15.92
2018-04-15T02:36:36.684Z,-15.92
2018-04-15T02:37:37.257Z,-15.92
2018-04-15T02:38:37.840Z,-15.92
2018-04-15T02:39:38.424Z,-15.92
2018-04-15T02:40:38.996Z,-15.92
2018-04-15T02:41:39.568Z,-15.92
2018-04-15T02:42:40.140Z,-15.92
2018-04-15T02:43:40.712Z,-15.92
2018-04-15T02:44:41.284Z,-15.92
2018-04-15T02:45:41.863Z,-15.92
2018-04-15T02:46:42.441Z,-15.92
2018-04-15T02:47:43.021Z,-15.92
2018-04-15T02:48:43.594Z,-15.92
2018-04-15T02:49:44.165Z,-15.92
2018-04-15T02:50:44.739Z,-15.92
2018-04-15T02:51:45.309Z,-15.92
2018-04-15T02:52:45.882Z,-15.92
2018-04-15T02:53:46.466Z,-15.92
2018-04-15T02:54:47.046Z,-15.92
2018-04-15T02:55:47.619Z,-15.92
2018-04-15T02:56:48.201Z,-15.92
2018-04-15T02:57:48.773Z,-15.92
2018-04-15T02:58:49.345Z,-15.92
2018-04-15T02:59:49.916Z,-15.92
2018-04-15T03:00:50.487Z,-15.92
2018-04-15T03:01:51.060Z,-15.92
2018-04-15T03:02:51.648Z,-15.92
2018-04-15T03:03:52.213Z,-15.92
2018-04-15T03:04:52.797Z,-15.92
2018-04-15T03:05:53.373Z,-15.92
2018-04-15T03:06:53.944Z,-15.92
2018-04-15T03:07:54.512Z,-15.92
2018-04-15T03:08:55.083Z,-15.92
2018-04-15T03:09:55.660Z,-15.92
2018-04-15T03:10:56.227Z,-15.92
2018-04-15T03:11:56.798Z,-15.92
2018-04-15T03:12:57.367Z,-15.92
2018-04-15T03:13:57.938Z,-15.92
2018-04-15T03:14:58.522Z,-15.92
2018-04-15T03:15:59.095Z,-15.92
2018-04-15T03:16:59.668Z,-15.92
2018-04-15T03:18:00.238Z,-15.92
2018-04-15T03:19:00.812Z,-15.92
2018-04-15T03:20:01.387Z,-15.92
2018-04-15T03:21:01.954Z,-15.92
2018-04-15T03:22:02.538Z,-15.92
2018-04-15T03:23:03.108Z,-15.92
2018-04-15T03:24:03.680Z,-15.92
2018-04-15T03:25:04.254Z,-15.92
2018-04-15T03:26:04.825Z,-15.92
2018-04-15T03:27:05.407Z,-15.92
2018-04-15T03:28:05.981Z,-15.92
2018-04-15T03:29:06.551Z,-15.92
2018-04-15T03:30:07.123Z,-15.92
2018-04-15T03:31:07.694Z,-15.92
2018-04-15T03:32:08.265Z,-15.92
2018-04-15T03:33:08.836Z,-15.92
2018-04-15T03:34:09.419Z,-15.92
2018-04-15T03:35:09.991Z,-15.92
2018-04-15T03:36:10.564Z,-15.92
2018-04-15T03:37:11.135Z,-15.92
2018-04-15T03:38:11.707Z,-15.92
2018-04-15T03:39:12.279Z,-15.92
2018-04-15T03:40:12.852Z,-15.92
2018-04-15T03:41:13.425Z,-15.92
2018-04-15T03:42:13.998Z,-15.92
2018-04-15T03:43:14.568Z,-15.92
2018-04-15T03:44:15.141Z,-15.92
2018-04-15T03:45:15.713Z,-15.92
2018-04-15T03:46:16.287Z,-15.92
2018-04-15T03:47:16.856Z,-15.92
2018-04-15T03:48:17.426Z,-15.92
2018-04-15T03:49:17.998Z,-15.92
2018-04-15T03:50:18.580Z,-15.92
2018-04-15T03:51:19.163Z,-15.92
2018-04-15T03:52:19.737Z,-15.92
2018-04-15T03:53:20.309Z,-15.92
2018-04-15T03:54:20.883Z,-15.92
2018-04-15T03:55:21.455Z,-15.92
2018-04-15T03:56:22.026Z,-15.92
2018-04-15T03:57:22.597Z,-15.92
2018-04-15T03:58:23.169Z,-15.92
2018-04-15T03:59:23.742Z,-15.92
2018-04-15T04:00:24.322Z,-15.92
2018-04-15T04:01:24.895Z,-15.92
2018-04-15T04:02:25.464Z,-15.92
2018-04-15T04:03:26.037Z,-15.92
2018-04-15T04:04:26.607Z,-15.92
2018-04-15T04:05:27.180Z,-15.92
2018-04-15T04:06:27.763Z,-15.92
2018-04-15T04:07:28.333Z,-15.92
2018-04-15T04:08:28.905Z,-15.92
2018-04-15T04:09:29.476Z,-15.92
2018-04-15T04:10:30.047Z,-15.92
2018-04-15T04:11:30.619Z,-15.92
2018-04-15T04:12:31.191Z,-15.92
2018-04-15T04:13:31.762Z,-15.92
2018-04-15T04:14:32.333Z,-15.92
2018-04-15T04:15:32.907Z,-15.92
2018-04-15T04:16:33.479Z,-15.92
2018-04-15T04:17:34.051Z,-15.92
2018-04-15T04:18:34.622Z,-15.92
2018-04-15T04:19:35.194Z,-15.92
2018-04-15T04:20:35.765Z,-15.92
2018-04-15T04:21:36.338Z,-15.92
2018-04-15T04:22:36.910Z,-15.92
2018-04-15T04:23:37.486Z,-15.92
2018-04-15T04:24:38.051Z,-15.92
2018-04-15T04:25:38.622Z,-15.92
2018-04-15T04:26:39.195Z,-15.92
2018-04-15T04:27:39.779Z,-15.92
2018-04-15T04:28:40.351Z,-15.92
2018-04-15T04:29:40.921Z,-15.92
2018-04-15T04:30:41.503Z,-15.92
2018-04-15T04:31:42.076Z,-15.92
2018-04-15T04:32:42.663Z,-15.92
2018-04-15T04:33:43.242Z,-15.92
2018-04-15T04:34:43.814Z,-15.92
2018-04-15T04:35:44.390Z,-15.92
2018-04-15T04:36:44.959Z,-15.92
2018-04-15T04:37:45.542Z,-15.92
2018-04-15T04:38:46.112Z,-15.92
2018-04-15T04:39:46.684Z,-15.92
2018-04-15T04:40:47.255Z,-15.92
2018-04-15T04:41:47.827Z,-15.92
2018-04-15T04:42:48.399Z,-15.92
2018-04-15T04:43:48.972Z,-15.92
2018-04-15T04:44:49.544Z,-15.92
2018-04-15T04:45:50.126Z,-15.92
2018-04-15T04:46:50.708Z,-15.92
2018-04-15T04:47:51.320Z,-15.92
2018-04-15T04:48:51.863Z,-15.92
2018-04-15T04:49:52.435Z,-15.92
2018-04-15T04:50:53.016Z,-15.92
2018-04-15T04:51:53.585Z,-15.92
2018-04-15T04:52:54.158Z,-15.92
2018-04-15T04:53:54.731Z,-15.92
2018-04-15T04:54:55.303Z,-15.92
2018-04-15T04:55:55.876Z,-15.92
2018-04-15T04:56:56.447Z,-15.92
2018-04-15T04:57:57.029Z,-15.92
2018-04-15T04:58:57.602Z,-15.92
2018-04-15T04:59:58.175Z,-15.92
2018-04-15T05:00:58.748Z,-15.92
2018-04-15T05:01:59.319Z,-15.92
2018-04-15T05:02:59.890Z,-15.92
2018-04-15T05:04:00.464Z,-15.92
2018-04-15T05:05:01.045Z,-15.92
2018-04-15T05:06:01.620Z,-15.92
2018-04-15T05:07:02.190Z,-15.92
2018-04-15T05:08:02.761Z,-15.92
2018-04-15T05:09:03.334Z,-15.92
2018-04-15T05:10:03.904Z,-15.92
2018-04-15T05:11:04.474Z,-15.92
2018-04-15T05:12:05.044Z,-15.92
2018-04-15T05:13:05.617Z,-15.92
2018-04-15T05:14:06.189Z,-15.92
2018-04-15T05:15:06.765Z,-15.92
2018-04-15T05:16:07.336Z,-15.92
2018-04-15T05:17:07.964Z,-15.92
2018-04-15T05:18:08.480Z,-15.92
2018-04-15T05:19:09.053Z,-15.92
2018-04-15T05:20:09.625Z,-15.92
2018-04-15T05:21:10.196Z,-15.92
2018-04-15T05:22:10.771Z,-15.92
2018-04-15T05:23:11.344Z,-15.92
2018-04-15T05:24:11.921Z,-15.92
2018-04-15T05:25:12.491Z,-15.92
2018-04-15T05:26:13.062Z,-15.92
2018-04-15T05:27:13.634Z,-15.92
2018-04-15T05:28:14.207Z,-15.92
2018-04-15T05:29:14.781Z,-15.92
2018-04-15T05:30:15.354Z,-15.92
2018-04-15T05:31:15.927Z,-15.92
2018-04-15T05:32:16.560Z,-15.92
2018-04-15T05:33:17.083Z,-15.92
2018-04-15T05:34:17.661Z,-15.92
2018-04-15T05:35:18.229Z,-15.92
2018-04-15T05:36:18.803Z,-15.92
2018-04-15T05:37:19.376Z,-15.92
2018-04-15T05:38:19.948Z,-15.92
2018-04-15T05:39:20.523Z,-15.92
2018-04-15T05:40:21.096Z,-15.92
2018-04-15T05:41:21.670Z,-15.92
2018-04-15T05:42:22.241Z,-15.92
2018-04-15T05:43:22.820Z,-15.92
2018-04-15T05:44:23.400Z,-15.92
2018-04-15T05:45:23.975Z,-15.92
2018-04-15T05:46:24.549Z,-15.92
2018-04-15T05:47:25.115Z,-15.92
2018-04-15T05:48:25.689Z,-15.92
2018-04-15T05:49:26.262Z,-15.92
2018-04-15T05:50:26.835Z,-15.92
2018-04-15T05:51:27.411Z,-15.92
2018-04-15T05:52:27.985Z,-15.92
2018-04-15T05:53:28.556Z,-15.92
2018-04-15T05:54:29.144Z,-15.92
2018-04-15T05:55:29.729Z,-15.92
2018-04-15T05:56:30.310Z,-15.92
2018-04-15T05:57:30.881Z,11.54
2018-04-15T05:58:31.465Z,11.45
2018-04-15T05:59:32.096Z,11.48
2018-04-15T06:00:32.619Z,11.45
2018-04-15T06:01:33.194Z,11.48
2018-04-15T06:02:33.765Z,11.48
2018-04-15T06:03:34.346Z,11.41
2018-04-15T06:04:34.928Z,11.47
2018-04-15T06:05:35.500Z,11.41
2018-04-15T06:06:36.072Z,11.48
2018-04-15T06:07:36.645Z,11.45
2018-04-15T06:08:37.218Z,11.45
2018-04-15T06:09:37.800Z,11.54
2018-04-15T06:10:38.377Z,11.43
2018-04-15T06:11:38.946Z,11.54
2018-04-15T06:12:39.520Z,11.50
2018-04-15T06:13:40.092Z,11.59
2018-04-15T06:14:40.665Z,11.57
2018-04-15T06:15:41.237Z,11.57
2018-04-15T06:16:41.808Z,11.52
2018-04-15T06:17:42.380Z,11.50
2018-04-15T06:18:42.953Z,11.62
2018-04-15T06:19:43.527Z,11.62
2018-04-15T06:20:44.099Z,11.57
2018-04-15T06:21:44.673Z,11.52
2018-04-15T06:22:45.245Z,11.73
2018-04-15T06:23:45.817Z,11.55
2018-04-15T06:24:46.402Z,11.62
2018-04-15T06:25:46.975Z,11.54
2018-04-15T06:26:47.545Z,11.62
2018-04-15T06:27:48.118Z,11.63
2018-04-15T06:28:48.691Z,11.69
2018-04-15T06:29:49.268Z,11.72
2018-04-15T06:30:49.847Z,11.66
2018-04-15T06:31:50.419Z,11.72
2018-04-15T06:32:50.991Z,11.81
2018-04-15T06:33:51.564Z,11.78
2018-04-15T06:34:52.140Z,11.75
2018-04-15T06:35:52.717Z,11.80
2018-04-15T06:36:53.351Z,11.78
2018-04-15T06:37:53.878Z,11.90
2018-04-15T06:38:54.461Z,11.87
2018-04-15T06:39:55.046Z,11.88
2018-04-15T06:40:55.618Z,11.95
2018-04-15T06:41:56.199Z,11.95
2018-04-15T06:42:56.767Z,12.03
2018-04-15T06:43:57.342Z,11.94
2018-04-15T06:44:57.928Z,12.07
2018-04-15T06:45:58.502Z,12.03
2018-04-15T06:46:59.075Z,12.06
2018-04-15T06:47:59.650Z,12.06
2018-04-15T06:49:00.224Z,12.27
2018-04-15T06:50:00.799Z,12.28
2018-04-15T06:51:01.373Z,12.25
2018-04-15T06:52:01.944Z,12.25
2018-04-15T06:53:02.528Z,12.07
2018-04-15T06:54:03.100Z,12.13
2018-04-15T06:55:03.675Z,12.21
2018-04-15T06:56:04.247Z,12.15
2018-04-15T06:57:04.832Z,12.22
2018-04-15T06:58:05.406Z,12.25
2018-04-15T06:59:05.981Z,12.18
2018-04-15T07:00:06.562Z,12.27
2018-04-15T07:01:07.135Z,12.36
2018-04-15T07:02:07.708Z,12.27
2018-04-15T07:03:08.280Z,12.32
2018-04-15T07:04:08.851Z,12.28
2018-04-15T07:05:09.425Z,12.42
2018-04-15T07:06:10.005Z,12.29
2018-04-15T07:07:10.575Z,12.42
2018-04-15T07:08:11.152Z,12.55
2018-04-15T07:09:11.725Z,12.54
2018-04-15T07:10:12.302Z,12.54
2018-04-15T07:11:12.878Z,12.54
2018-04-15T07:12:13.451Z,12.67
2018-04-15T07:13:14.027Z,12.67
2018-04-15T07:14:14.602Z,12.68
2018-04-15T07:15:15.178Z,12.67
2018-04-15T07:16:15.753Z,12.79
2018-04-15T07:17:16.328Z,12.85
2018-04-15T07:18:16.914Z,12.94
2018-04-15T07:19:17.489Z,12.97
2018-04-15T07:20:18.064Z,13.11
2018-04-15T07:21:18.640Z,13.00
2018-04-15T07:22:19.217Z,13.05
2018-04-15T07:23:19.791Z,13.31
2018-04-15T07:24:20.367Z,13.54
2018-04-15T07:25:20.943Z,13.57
2018-04-15T07:26:21.518Z,13.65
2018-04-15T07:27:22.094Z,13.70
2018-04-15T07:28:22.669Z,13.89
2018-04-15T07:29:23.245Z,13.79
2018-04-15T07:30:23.924Z,13.85
2018-04-15T07:31:24.396Z,13.83
2018-04-15T07:32:24.970Z,13.77
2018-04-15T07:33:25.545Z,13.99
2018-04-15T07:34:26.121Z,14.12
2018-04-15T07:35:26.699Z,13.81
2018-04-15T07:36:27.326Z,14.00
2018-04-15T07:37:27.853Z,14.45
2018-04-15T07:38:28.426Z,14.47
2018-04-15T07:39:29.000Z,14.53
2018-04-15T07:40:29.576Z,14.30
2018-04-15T07:41:30.151Z,14.20
2018-04-15T07:42:30.727Z,14.33
2018-04-15T07:43:31.304Z,14.35
2018-04-15T07:44:31.880Z,14.15
2018-04-15T07:45:32.456Z,14.32
2018-04-15T07:46:33.034Z,14.33
2018-04-15T07:47:33.609Z,14.58
2018-04-15T07:48:34.191Z,14.59
2018-04-15T07:49:34.772Z,14.78
2018-04-15T07:50:35.347Z,14.66
2018-04-15T07:51:35.921Z,14.63
2018-04-15T07:52:36.497Z,14.51
2018-04-15T07:53:37.074Z,14.88
2018-04-15T07:54:37.652Z,14.54
2018-04-15T07:55:38.228Z,14.45
2018-04-15T07:56:38.803Z,14.37
2018-04-15T07:57:39.381Z,14.29
2018-04-15T07:58:39.956Z,14.45
2018-04-15T07:59:40.533Z,14.37
2018-04-15T08:00:41.110Z,14.29
2018-04-15T08:01:41.687Z,14.29
2018-04-15T08:02:42.274Z,14.25
2018-04-15T08:03:42.858Z,14.30
2018-04-15T08:04:43.439Z,14.11
2018-04-15T08:05:44.021Z,14.10
2018-04-15T08:06:44.596Z,14.48
2018-04-15T08:07:45.218Z,14.78
2018-04-15T08:08:45.750Z,14.63
2018-04-15T08:09:46.327Z,14.58
2018-04-15T08:10:46.904Z,14.29
2018-04-15T08:11:47.479Z,14.07
2018-04-15T08:12:48.057Z,14.10
2018-04-15T08:13:48.635Z,14.17
2018-04-15T08:14:49.211Z,14.26
2018-04-15T08:15:49.789Z,14.20
2018-04-15T08:16:50.363Z,14.30
2018-04-15T08:17:50.948Z,14.30
2018-04-15T08:18:51.524Z,14.45
2018-04-15T08:19:52.100Z,14.51
2018-04-15T08:20:52.684Z,14.81
2018-04-15T08:21:53.268Z,15.00
2018-04-15T08:22:53.847Z,14.89
2018-04-15T08:23:54.419Z,15.00
2018-04-15T08:24:55.007Z,15.02
2018-04-15T08:25:55.593Z,14.94
2018-04-15T08:26:56.170Z,15.19
2018-04-15T08:27:56.751Z,15.33
2018-04-15T08:28:57.335Z,15.36
2018-04-15T08:29:57.911Z,15.06
2018-04-15T08:30:58.487Z,14.92
2018-04-15T08:31:59.064Z,15.42
2018-04-15T08:32:59.641Z,15.64
2018-04-15T08:34:00.218Z,15.76
2018-04-15T08:35:00.794Z,16.00
2018-04-15T08:36:01.370Z,15.84
2018-04-15T08:37:01.950Z,15.70
2018-04-15T08:38:02.537Z,15.65
2018-04-15T08:39:03.115Z,15.67
2018-04-15T08:40:03.693Z,15.73
2018-04-15T08:41:04.279Z,15.79
2018-04-15T08:42:04.855Z,15.59
2018-04-15T08:43:05.433Z,15.59
2018-04-15T08:44:06.011Z,15.39
2018-04-15T08:45:06.588Z,15.47
2018-04-15T08:46:07.177Z,15.65
2018-04-15T08:47:07.762Z,15.83
2018-04-15T08:48:08.351Z,16.13
2018-04-15T08:49:08.919Z,15.86
2018-04-15T08:50:09.519Z,15.94
2018-04-15T08:51:10.086Z,15.98
2018-04-15T08:52:10.662Z,16.01
2018-04-15T08:53:11.237Z,15.90
2018-04-15T08:54:11.828Z,16.05
2018-04-15T08:55:12.404Z,15.79
2018-04-15T08:56:12.981Z,15.65
2018-04-15T08:57:13.568Z,15.67
2018-04-15T08:58:14.146Z,15.35
2018-04-15T08:59:14.725Z,15.44
2018-04-15T09:00:15.304Z,15.68
2018-04-15T09:01:15.894Z,16.02
2018-04-15T09:02:16.471Z,15.84
2018-04-15T09:03:17.048Z,15.84
2018-04-15T09:04:17.626Z,16.10
2018-04-15T09:05:18.204Z,16.21
2018-04-15T09:06:18.783Z,16.31
2018-04-15T09:07:19.358Z,16.13
2018-04-15T09:08:19.949Z,16.28
2018-04-15T09:09:20.524Z,16.56
2018-04-15T09:10:21.101Z,16.60
2018-04-15T09:11:21.679Z,16.66
2018-04-15T09:12:22.260Z,16.43
2018-04-15T09:13:22.837Z,16.54
2018-04-15T09:14:23.414Z,16.78
2018-04-15T09:15:23.991Z,16.76
2018-04-15T09:16:24.568Z,16.89
2018-04-15T09:17:25.145Z,16.38
2018-04-15T09:18:25.723Z,16.91
2018-04-15T09:19:26.301Z,17.09
2018-04-15T09:20:26.883Z,17.26
2018-04-15T09:21:27.488Z,17.51
2018-04-15T09:22:28.034Z,17.64
2018-04-15T09:23:28.611Z,17.63
2018-04-15T09:24:29.190Z,17.64
2018-04-15T09:25:29.770Z,17.65
2018-04-15T09:26:30.410Z,17.74
2018-04-15T09:27:30.925Z,17.63
2018-04-15T09:28:31.505Z,17.70
2018-04-15T09:29:32.133Z,17.76
2018-04-15T09:30:32.710Z,17.54
2018-04-15T09:31:33.289Z,17.59
2018-04-15T09:32:33.867Z,17.52
2018-04-15T09:33:34.443Z,17.49
2018-04-15T09:34:35.021Z,17.59
2018-04-15T09:35:35.644Z,17.59
2018-04-15T09:36:36.180Z,17.65
2018-04-15T09:37:36.759Z,17.67
2018-04-15T09:38:37.336Z,17.76
2018-04-15T09:39:37.917Z,17.87
2018-04-15T09:40:38.495Z,17.87
2018-04-15T09:41:39.076Z,17.92
2018-04-15T09:42:39.653Z,18.00
2018-04-15T09:43:40.232Z,17.79
2018-04-15T09:44:40.812Z,18.08
2018-04-15T09:45:41.397Z,18.29
2018-04-15T09:46:41.981Z,18.19
2018-04-15T09:47:42.573Z,18.15
2018-04-15T09:48:43.188Z,18.23
2018-04-15T09:49:43.730Z,18.35
2018-04-15T09:50:44.309Z,18.28
2018-04-15T09:51:44.899Z,18.38
2018-04-15T09:52:45.476Z,18.56
2018-04-15T09:53:46.056Z,18.49
2018-04-15T09:54:46.636Z,18.55
2018-04-15T09:55:47.215Z,18.59
2018-04-15T09:56:47.794Z,18.55
2018-04-15T09:57:48.377Z,18.44
2018-04-15T09:58:48.955Z,18.55
2018-04-15T09:59:49.541Z,18.60
2018-04-15T10:00:50.122Z,18.53
2018-04-15T10:01:50.700Z,18.45
2018-04-15T10:02:51.281Z,18.44
2018-04-15T10:03:51.868Z,18.43
2018-04-15T10:04:52.447Z,18.58
2018-04-15T10:05:53.026Z,18.47
2018-04-15T10:06:53.607Z,18.37
2018-04-15T10:07:54.185Z,18.15
2018-04-15T10:08:54.765Z,18.44
2018-04-15T10:09:55.345Z,18.66
2018-04-15T10:10:55.941Z,18.81
2018-04-15T10:11:56.514Z,18.71
2018-04-15T10:12:57.097Z,18.59
2018-04-15T10:13:57.675Z,18.49
2018-04-15T10:14:58.254Z,18.31
2018-04-15T10:15:58.833Z,18.55
2018-04-15T10:16:59.465Z,18.47
2018-04-15T10:17:59.996Z,18.26
2018-04-15T10:19:00.573Z,18.47
2018-04-15T10:20:01.152Z,18.52
2018-04-15T10:21:01.745Z,18.58
2018-04-15T10:22:02.322Z,18.59
2018-04-15T10:23:02.903Z,-15.92
2018-04-15T10:24:03.581Z,-15.92
2018-04-15T10:25:04.062Z,-15.92
2018-04-15T10:26:04.640Z,-15.92
2018-04-15T10:27:05.222Z,-15.92
2018-04-15T10:28:05.802Z,-15.92
2018-04-15T10:29:06.384Z,-15.92
2018-04-15T10:30:06.962Z,-15.92
2018-04-15T10:31:07.542Z,-15.92
2018-04-15T10:32:08.125Z,-15.92
2018-04-15T10:33:08.704Z,-15.92
2018-04-15T10:34:09.283Z,-15.92
2018-04-15T10:35:09.864Z,-15.92
2018-04-15T10:36:10.443Z,-15.92
2018-04-15T10:37:11.023Z,-15.92
2018-04-15T10:38:11.608Z,-15.92
2018-04-15T10:39:12.184Z,-15.92
2018-04-15T10:40:12.766Z,-15.92
2018-04-15T10:41:13.346Z,-15.92
2018-04-15T10:42:13.938Z,-15.92
2018-04-15T10:43:14.520Z,-15.92
2018-04-15T10:44:15.096Z,-15.92
2018-04-15T10:45:15.676Z,-15.92
2018-04-15T10:46:16.259Z,-15.92
2018-04-15T10:47:16.881Z,-15.92
2018-04-15T10:48:17.431Z,-15.92
2018-04-15T10:49:18.011Z,-15.92
2018-04-15T10:50:18.591Z,-15.92
2018-04-15T10:51:19.172Z,-15.92
2018-04-15T10:52:19.752Z,-15.92
2018-04-15T10:53:20.331Z,-15.92
2018-04-15T10:54:20.912Z,-15.92
2018-04-15T10:55:21.500Z,-15.92
2018-04-15T10:56:22.073Z,-15.92
2018-04-15T10:57:22.651Z,-15.92
2018-04-15T10:58:23.232Z,-15.92
2018-04-15T10:59:23.812Z,-15.92
2018-04-15T11:00:24.401Z,-15.92
2018-04-15T11:01:24.982Z,-15.92
2018-04-15T11:02:25.574Z,-15.92
2018-04-15T11:03:26.154Z,-15.92
2018-04-15T11:04:26.735Z,-15.92
2018-04-15T11:05:27.316Z,-15.92
2018-04-15T11:06:27.897Z,-15.92
2018-04-15T11:07:28.477Z,-15.92
2018-04-15T11:08:29.056Z,-15.92
2018-04-15T11:09:29.636Z,-15.92
2018-04-15T11:10:30.216Z,-15.92
2018-04-15T11:11:30.796Z,-15.92
2018-04-15T11:12:31.378Z,-15.92
2018-04-15T11:13:31.956Z,-15.92
2018-04-15T11:14:32.536Z,-15.92
2018-04-15T11:15:33.127Z,-15.92
2018-04-15T11:16:33.706Z,-15.92
2018-04-15T11:17:34.287Z,-15.92
2018-04-15T11:18:34.870Z,-15.92
2018-04-15T11:19:35.451Z,-15.92
2018-04-15T11:20:36.030Z,-15.92
2018-04-15T11:21:36.612Z,-15.92
2018-04-15T11:22:37.204Z,-15.92
2018-04-15T11:23:37.787Z,-15.92
2018-04-15T11:24:38.366Z,-15.92
2018-04-15T11:25:38.945Z,-15.92
2018-04-15T11:26:39.526Z,-15.92
2018-04-15T11:27:40.108Z,-15.92
2018-04-15T11:28:40.698Z,-15.92
2018-04-15T11:29:41.280Z,-15.92
2018-04-15T11:30:41.861Z,-15.92
2018-04-15T11:31:42.440Z,-15.92
2018-04-15T11:32:43.021Z,-15.92
2018-04-15T11:33:43.604Z,-15.92
2018-04-15T11:34:44.183Z,-15.92
2018-04-15T11:35:44.764Z,-15.92
2018-04-15T11:36:45.356Z,-15.92
2018-04-15T11:37:45.923Z,-15.92
2018-04-15T11:38:46.505Z,-15.92
2018-04-15T11:39:47.085Z,-15.92
2018-04-15T11:40:47.665Z,-15.92
2018-04-15T11:41:48.247Z,-15.92
2018-04-15T11:42:48.826Z,-15.92
2018-04-15T11:43:49.407Z,-15.92
2018-04-15T11:44:49.988Z,-15.92
2018-04-15T11:45:50.573Z,-15.92
2018-04-15T11:46:51.149Z,-15.92
2018-04-15T11:47:51.730Z,-15.92
2018-04-15T11:48:52.310Z,-15.92
2018-04-15T11:49:52.892Z,-15.92
2018-04-15T11:50:53.473Z,-15.92
2018-04-15T11:51:54.055Z,-15.92
2018-04-15T11:52:54.650Z,-15.92
2018-04-15T11:53:55.218Z,-15.92
2018-04-15T11:54:55.799Z,-15.92
2018-04-15T11:55:56.381Z,-15.92
2018-04-15T11:56:56.963Z,-15.92
2018-04-15T11:57:57.544Z,-15.92
2018-04-15T11:58:58.126Z,-15.92
2018-04-15T11:59:58.707Z,-15.92
2018-04-15T12:00:59.288Z,-15.92
2018-04-15T12:01:59.869Z,-15.92
2018-04-15T12:03:00.451Z,-15.92
2018-04-15T12:04:01.033Z,-15.92
2018-04-15T12:05:01.618Z,-15.92
2018-04-15T12:06:02.195Z,-15.92
2018-04-15T12:07:02.776Z,-15.92
2018-04-15T12:08:03.356Z,-15.92
2018-04-15T12:09:03.936Z,-15.92
2018-04-15T12:10:04.517Z,-15.92
2018-04-15T12:11:05.098Z,-15.92
2018-04-15T12:12:05.679Z,-15.92
2018-04-15T12:13:06.260Z,-15.92
2018-04-15T12:14:06.839Z,-15.92
2018-04-15T12:15:07.422Z,-15.92
2018-04-15T12:16:08.003Z,-15.92
2018-04-15T12:17:08.580Z,-15.92
2018-04-15T12:18:09.160Z,-15.92
2018-04-15T12:19:09.741Z,-15.92
2018-04-15T12:20:10.323Z,-15.92
2018-04-15T12:21:10.905Z,-15.92
2018-04-15T12:22:11.484Z,-15.92
2018-04-15T12:23:12.067Z,-15.92
2018-04-15T12:24:12.647Z,-15.92
2018-04-15T12:25:13.225Z,-15.92
2018-04-15T12:26:13.816Z,-15.92
2018-04-15T12:27:14.408Z,-15.92
2018-04-15T12:28:14.987Z,-15.92
2018-04-15T12:29:15.568Z,-15.92
2018-04-15T12:30:16.147Z,-15.92
2018-04-15T12:31:16.728Z,-15.92
2018-04-15T12:32:17.310Z,-15.92
2018-04-15T12:33:17.901Z,-15.92
2018-04-15T12:34:18.481Z,-15.92
2018-04-15T12:35:19.063Z,-15.92
2018-04-15T12:36:19.641Z,-15.92
2018-04-15T12:37:20.233Z,-15.92
2018-04-15T12:38:20.827Z,-15.92
2018-04-15T12:39:21.414Z,-15.92
2018-04-15T12:40:21.995Z,-15.92
2018-04-15T12:41:22.574Z,-15.92
2018-04-15T12:42:23.155Z,-15.92
2018-04-15T12:43:23.733Z,-15.92
2018-04-15T12:44:24.318Z,-15.92